Time,TemperatureF,DewpointF,PressureIn,WindDirection,WindDirectionDegrees,WindSpeedMPH,WindSpeedGustMPH,Humidity,HourlyPrecipIn,Conditions,Clouds,dailyrainin,SoftwareType,DateUTC
2013-08-26 00:01:00,71.2,65.1,30.22,SW,225,0.6,0.6,81,0.00,,,0.00,VWS V14.01,2013-08-26 05:01:00,
2013-08-26 00:06:00,71.2,65.1,30.22,SSW,202,0.0,0.0,81,0.00,,,0.00,VWS V14.01,2013-08-26 05:06:00,
2013-08-26 00:11:00,71.2,65.1,30.22,SW,225,0.0,0.0,81,0.00,,,0.00,VWS V14.01,2013-08-26 05:11:00,
2013-08-26 00:16:00,71.2,65.1,30.22,SSW,202,1.1,1.1,81,0.00,,,0.00,VWS V14.01,2013-08-26 05:16:00,
2013-08-26 00:21:00,70.8,64.7,30.22,SSW,202,0.0,0.0,81,0.00,,,0.00,VWS V14.01,2013-08-26 05:21:00,
2013-08-26 00:26:00,70.7,64.6,30.22,SW,225,0.0,0.0,81,0.00,,,0.00,VWS V14.01,2013-08-26 05:26:00,
2013-08-26 00:31:00,70.5,64.4,30.22,SW,225,0.0,0.0,81,0.00,,,0.00,VWS V14.01,2013-08-26 05:31:00,
2013-08-26 00:36:00,70.5,64.4,30.23,SW,225,0.0,0.0,81,0.00,,,0.00,VWS V14.01,2013-08-26 05:36:00,
2013-08-26 00:41:00,70.3,64.2,30.22,SSW,202,0.0,0.0,81,0.00,,,0.00,VWS V14.01,2013-08-26 05:41:00,
2013-08-26 00:46:00,70.1,64.0,30.22,SSW,202,0.0,0.0,81,0.00,,,0.00,VWS V14.01,2013-08-26 05:46:00,
2013-08-26 00:51:00,69.9,64.2,30.22,SSW,202,0.0,0.0,82,0.00,,,0.00,VWS V14.01,2013-08-26 05:51:00,
2013-08-26 00:56:00,69.9,64.2,30.22,SW,225,0.0,0.0,82,0.00,,,0.00,VWS V14.01,2013-08-26 05:56:00,
2013-08-26 01:01:00,69.8,64.1,30.22,SW,225,0.0,0.0,82,0.00,,,0.00,VWS V14.01,2013-08-26 06:01:00,
2013-08-26 01:06:00,69.6,63.9,30.22,SW,225,0.0,0.0,82,0.00,,,0.00,VWS V14.01,2013-08-26 06:06:00,
2013-08-26 01:11:00,69.6,63.9,30.22,SW,225,0.0,0.0,82,0.00,,,0.00,VWS V14.01,2013-08-26 06:11:00,
2013-08-26 01:16:00,69.6,63.9,30.22,SW,225,0.0,0.0,82,0.00,,,0.00,VWS V14.01,2013-08-26 06:16:00,
2013-08-26 01:21:00,69.4,63.7,30.21,SSW,202,2.6,2.6,82,0.00,,,0.00,VWS V14.01,2013-08-26 06:21:00,
2013-08-26 01:26:00,69.2,63.5,30.22,SSW,202,3.3,3.3,82,0.00,,,0.00,VWS V14.01,2013-08-26 06:26:00,
2013-08-26 01:31:00,69.0,63.3,30.21,SSW,202,2.0,2.0,82,0.00,,,0.00,VWS V14.01,2013-08-26 06:31:00,
2013-08-26 01:36:00,69.0,63.6,30.21,SW,225,3.1,3.1,83,0.00,,,0.00,VWS V14.01,2013-08-26 06:36:00,
2013-08-26 01:41:00,69.0,63.3,30.21,SW,225,1.7,1.7,82,0.00,,,0.00,VWS V14.01,2013-08-26 06:41:00,
2013-08-26 01:46:00,69.0,63.3,30.21,SW,225,5.8,5.8,82,0.00,,,0.00,VWS V14.01,2013-08-26 06:46:00,
2013-08-26 01:51:00,69.0,63.3,30.21,SSW,202,4.0,4.0,82,0.00,,,0.00,VWS V14.01,2013-08-26 06:51:00,
2013-08-26 01:56:00,68.9,63.2,30.20,SSW,202,4.9,4.9,82,0.00,,,0.00,VWS V14.01,2013-08-26 06:56:00,
2013-08-26 02:01:00,68.9,63.2,30.20,South,180,6.0,6.0,82,0.00,,,0.00,VWS V14.01,2013-08-26 07:01:00,
2013-08-26 02:06:00,68.7,63.0,30.21,SSW,202,2.0,2.0,82,0.00,,,0.00,VWS V14.01,2013-08-26 07:06:00,
2013-08-26 02:11:00,68.7,63.0,30.21,SW,225,0.8,0.8,82,0.00,,,0.00,VWS V14.01,2013-08-26 07:11:00,
2013-08-26 02:16:00,68.5,63.1,30.21,SW,225,1.7,1.7,83,0.00,,,0.00,VWS V14.01,2013-08-26 07:16:00,
2013-08-26 02:21:00,68.5,63.1,30.21,SSW,202,2.6,2.6,83,0.00,,,0.00,VWS V14.01,2013-08-26 07:21:00,
2013-08-26 02:26:00,68.3,62.9,30.22,SW,225,1.5,1.5,83,0.00,,,0.00,VWS V14.01,2013-08-26 07:26:00,
2013-08-26 02:31:00,68.3,62.9,30.22,SW,225,1.5,1.5,83,0.00,,,0.00,VWS V14.01,2013-08-26 07:31:00,
2013-08-26 02:36:00,68.5,63.1,30.22,SSW,202,3.3,3.3,83,0.00,,,0.00,VWS V14.01,2013-08-26 07:36:00,
2013-08-26 02:41:00,68.5,63.1,30.21,SSW,202,2.6,2.6,83,0.00,,,0.00,VWS V14.01,2013-08-26 07:41:00,
2013-08-26 02:46:00,68.1,62.8,30.21,SSW,202,0.8,0.8,83,0.00,,,0.00,VWS V14.01,2013-08-26 07:46:00,
2013-08-26 02:51:00,67.8,62.5,30.22,SSW,202,4.2,4.2,83,0.00,,,0.00,VWS V14.01,2013-08-26 07:51:00,
2013-08-26 02:56:00,67.8,62.5,30.21,SSW,202,2.2,2.2,83,0.00,,,0.00,VWS V14.01,2013-08-26 07:56:00,
2013-08-26 03:01:00,67.6,62.3,30.21,SSW,202,0.0,0.0,83,0.00,,,0.00,VWS V14.01,2013-08-26 08:01:00,
2013-08-26 03:06:00,67.2,62.2,30.22,SSW,202,1.5,1.5,84,0.00,,,0.00,VWS V14.01,2013-08-26 08:06:00,
2013-08-26 03:11:00,67.2,62.2,30.22,SSW,202,2.2,2.2,84,0.00,,,0.00,VWS V14.01,2013-08-26 08:11:00,
2013-08-26 03:16:00,67.2,62.2,30.21,SSW,202,0.8,0.8,84,0.00,,,0.00,VWS V14.01,2013-08-26 08:16:00,
2013-08-26 03:20:00,66.9,61.9,30.21,SSW,202,1.1,1.1,84,0.00,,,0.00,VWS V14.01,2013-08-26 08:20:00,
2013-08-26 03:25:00,66.9,61.9,30.21,SSW,202,0.0,0.0,84,0.00,,,0.00,VWS V14.01,2013-08-26 08:25:00,
2013-08-26 03:30:00,66.9,61.9,30.22,SSW,202,2.0,2.0,84,0.00,,,0.00,VWS V14.01,2013-08-26 08:30:00,
2013-08-26 03:35:00,67.1,62.1,30.21,SSW,202,2.2,2.2,84,0.00,,,0.00,VWS V14.01,2013-08-26 08:35:00,
2013-08-26 03:40:00,66.9,61.9,30.21,SSW,202,0.0,0.0,84,0.00,,,0.00,VWS V14.01,2013-08-26 08:40:00,
2013-08-26 03:45:00,66.7,61.7,30.21,SSW,202,0.8,0.8,84,0.00,,,0.00,VWS V14.01,2013-08-26 08:45:00,
2013-08-26 03:50:00,66.7,61.7,30.21,SSW,202,2.6,2.6,84,0.00,,,0.00,VWS V14.01,2013-08-26 08:50:00,
2013-08-26 03:55:00,66.7,62.0,30.21,SSW,202,2.6,2.6,85,0.00,,,0.00,VWS V14.01,2013-08-26 08:55:00,
2013-08-26 04:00:00,66.7,62.0,30.20,SSW,202,4.0,4.0,85,0.00,,,0.00,VWS V14.01,2013-08-26 09:00:00,
2013-08-26 04:05:00,66.7,62.0,30.20,SW,225,2.9,2.9,85,0.00,,,0.00,VWS V14.01,2013-08-26 09:05:00,
2013-08-26 04:10:00,66.7,62.0,30.21,SSW,202,4.9,4.9,85,0.00,,,0.00,VWS V14.01,2013-08-26 09:10:00,
2013-08-26 04:15:00,66.7,62.0,30.21,SSW,202,5.8,5.8,85,0.00,,,0.00,VWS V14.01,2013-08-26 09:15:00,
2013-08-26 04:20:00,66.7,62.0,30.20,SSW,202,3.1,3.1,85,0.00,,,0.00,VWS V14.01,2013-08-26 09:20:00,
2013-08-26 04:25:00,66.5,61.9,30.20,SSW,202,2.9,2.9,85,0.00,,,0.00,VWS V14.01,2013-08-26 09:25:00,
2013-08-26 04:30:00,66.7,62.4,30.21,SW,225,3.3,3.3,86,0.00,,,0.00,VWS V14.01,2013-08-26 09:30:00,
2013-08-26 04:35:00,66.7,62.4,30.21,SW,225,2.9,2.9,86,0.00,,,0.00,VWS V14.01,2013-08-26 09:35:00,
2013-08-26 04:40:00,66.7,62.4,30.20,SW,225,2.0,2.0,86,0.00,,,0.00,VWS V14.01,2013-08-26 09:40:00,
2013-08-26 04:45:00,66.7,62.4,30.20,SSW,202,2.2,2.2,86,0.00,,,0.00,VWS V14.01,2013-08-26 09:45:00,
2013-08-26 04:50:00,66.7,62.4,30.21,SW,225,1.5,1.5,86,0.00,,,0.00,VWS V14.01,2013-08-26 09:50:00,
2013-08-26 04:55:00,66.7,62.4,30.21,SSW,202,2.6,2.6,86,0.00,,,0.00,VWS V14.01,2013-08-26 09:55:00,
2013-08-26 05:00:00,66.7,62.4,30.20,SW,225,3.5,3.5,86,0.00,,,0.00,VWS V14.01,2013-08-26 10:00:00,
2013-08-26 05:05:00,66.9,62.6,30.20,SW,225,2.4,2.4,86,0.00,,,0.00,VWS V14.01,2013-08-26 10:05:00,
2013-08-26 05:10:00,67.1,62.8,30.20,SW,225,1.7,1.7,86,0.00,,,0.00,VWS V14.01,2013-08-26 10:10:00,
2013-08-26 05:15:00,67.1,62.8,30.20,SSW,202,1.3,1.3,86,0.00,,,0.00,VWS V14.01,2013-08-26 10:15:00,
2013-08-26 05:20:00,67.1,62.8,30.20,SW,225,4.0,4.0,86,0.00,,,0.00,VWS V14.01,2013-08-26 10:20:00,
2013-08-26 05:25:00,67.2,62.5,30.20,SW,225,2.6,2.6,85,0.00,,,0.00,VWS V14.01,2013-08-26 10:25:00,
2013-08-26 05:30:00,67.6,62.9,30.21,SSW,202,5.8,5.8,85,0.00,,,0.00,VWS V14.01,2013-08-26 10:30:00,
2013-08-26 05:35:00,67.6,62.9,30.20,SW,225,4.4,4.4,85,0.00,,,0.00,VWS V14.01,2013-08-26 10:35:00,
2013-08-26 05:40:00,67.6,62.9,30.21,SW,225,3.3,3.3,85,0.00,,,0.00,VWS V14.01,2013-08-26 10:40:00,
2013-08-26 05:45:00,67.6,62.9,30.21,SW,225,2.2,2.2,85,0.00,,,0.00,VWS V14.01,2013-08-26 10:45:00,
2013-08-26 05:50:00,67.4,62.7,30.21,SSW,202,4.9,4.9,85,0.00,,,0.00,VWS V14.01,2013-08-26 10:50:00,
2013-08-26 05:55:00,67.2,62.5,30.20,SW,225,3.3,3.3,85,0.00,,,0.00,VWS V14.01,2013-08-26 10:55:00,
2013-08-26 06:00:00,67.2,62.5,30.20,SSW,202,2.9,2.9,85,0.00,,,0.00,VWS V14.01,2013-08-26 11:00:00,
2013-08-26 06:05:00,67.1,62.5,30.20,SW,225,2.6,2.6,85,0.00,,,0.00,VWS V14.01,2013-08-26 11:05:00,
2013-08-26 06:10:00,67.1,62.5,30.20,SSW,202,4.4,4.4,85,0.00,,,0.00,VWS V14.01,2013-08-26 11:10:00,
2013-08-26 06:15:00,66.9,62.2,30.20,SSW,202,0.8,0.8,85,0.00,,,0.00,VWS V14.01,2013-08-26 11:15:00,
2013-08-26 06:20:00,66.9,62.2,30.20,SW,225,0.0,0.0,85,0.00,,,0.00,VWS V14.01,2013-08-26 11:20:00,
2013-08-26 06:25:00,66.9,62.2,30.20,SSW,202,1.5,1.5,85,0.00,,,0.00,VWS V14.01,2013-08-26 11:25:00,
2013-08-26 06:30:00,66.9,62.2,30.20,SW,225,0.0,0.0,85,0.00,,,0.00,VWS V14.01,2013-08-26 11:30:00,
2013-08-26 06:35:00,67.1,62.5,30.20,SW,225,0.0,0.0,85,0.00,,,0.00,VWS V14.01,2013-08-26 11:35:00,
2013-08-26 06:40:00,67.1,62.5,30.21,SW,225,0.0,0.0,85,0.00,,,0.00,VWS V14.01,2013-08-26 11:40:00,
2013-08-26 06:45:00,67.2,62.5,30.21,SW,225,2.2,2.2,85,0.00,,,0.00,VWS V14.01,2013-08-26 11:45:00,
2013-08-26 06:50:00,67.8,63.1,30.22,SW,225,2.9,2.9,85,0.00,,,0.00,VWS V14.01,2013-08-26 11:50:00,
2013-08-26 06:55:00,69.4,64.4,30.22,SSW,202,3.8,3.8,84,0.00,,,0.00,VWS V14.01,2013-08-26 11:55:00,
2013-08-26 07:00:00,69.6,64.2,30.22,SW,225,0.0,0.0,83,0.00,,,0.00,VWS V14.01,2013-08-26 12:00:00,
2013-08-26 07:05:00,69.6,63.9,30.22,SW,225,3.3,3.3,82,0.00,,,0.00,VWS V14.01,2013-08-26 12:05:00,
2013-08-26 07:10:00,69.4,63.7,30.22,SW,225,2.4,2.4,82,0.00,,,0.00,VWS V14.01,2013-08-26 12:10:00,
2013-08-26 07:15:00,69.6,63.9,30.23,SSW,202,2.6,2.6,82,0.00,,,0.00,VWS V14.01,2013-08-26 12:15:00,
2013-08-26 07:20:00,70.1,64.4,30.23,SW,225,2.6,2.6,82,0.00,,,0.00,VWS V14.01,2013-08-26 12:20:00,
2013-08-26 07:25:00,70.7,64.6,30.23,SW,225,3.1,3.1,81,0.00,,,0.00,VWS V14.01,2013-08-26 12:25:00,
2013-08-26 07:30:00,71.2,65.1,30.23,SW,225,3.8,3.8,81,0.00,,,0.00,VWS V14.01,2013-08-26 12:30:00,
2013-08-26 07:35:00,71.7,65.2,30.22,SW,225,2.4,2.4,80,0.00,,,0.00,VWS V14.01,2013-08-26 12:35:00,
2013-08-26 07:40:00,72.3,65.4,30.23,SW,225,5.1,5.1,79,0.00,,,0.00,VWS V14.01,2013-08-26 12:40:00,
2013-08-26 07:45:00,72.6,65.7,30.23,SW,225,2.0,2.0,79,0.00,,,0.00,VWS V14.01,2013-08-26 12:45:00,
2013-08-26 07:50:00,73.5,66.2,30.23,SW,225,2.9,2.9,78,0.00,,,0.00,VWS V14.01,2013-08-26 12:50:00,
2013-08-26 07:55:00,74.1,66.1,30.23,WSW,248,1.1,1.1,76,0.00,,,0.00,VWS V14.01,2013-08-26 12:55:00,
2013-08-26 08:00:00,74.8,66.3,30.23,SW,225,2.9,2.9,75,0.00,,,0.00,VWS V14.01,2013-08-26 13:00:00,
2013-08-26 08:05:00,75.3,67.2,30.23,SW,225,0.0,0.0,76,0.00,,,0.00,VWS V14.01,2013-08-26 13:05:00,
2013-08-26 08:10:00,75.9,67.4,30.23,SW,225,1.3,1.3,75,0.00,,,0.00,VWS V14.01,2013-08-26 13:10:00,
2013-08-26 08:15:00,77.1,67.8,30.23,SW,225,1.1,1.1,73,0.00,,,0.00,VWS V14.01,2013-08-26 13:15:00,
2013-08-26 08:20:00,78.4,68.6,30.23,SW,225,2.9,2.9,72,0.00,,,0.00,VWS V14.01,2013-08-26 13:20:00,
2013-08-26 08:25:00,77.7,67.1,30.23,SSW,202,5.5,5.5,70,0.00,,,0.00,VWS V14.01,2013-08-26 13:25:00,
2013-08-26 08:30:00,76.2,66.9,30.23,SW,225,5.8,5.8,73,0.00,,,0.00,VWS V14.01,2013-08-26 13:30:00,
2013-08-26 08:35:00,75.9,67.0,30.22,SW,225,4.0,4.0,74,0.00,,,0.00,VWS V14.01,2013-08-26 13:35:00,
2013-08-26 08:40:00,76.4,67.1,30.23,SW,225,3.8,3.8,73,0.00,,,0.00,VWS V14.01,2013-08-26 13:40:00,
2013-08-26 08:45:00,77.0,68.1,30.22,SW,225,5.8,5.8,74,0.00,,,0.00,VWS V14.01,2013-08-26 13:45:00,
2013-08-26 08:50:00,77.7,68.4,30.22,SSW,202,6.4,6.4,73,0.00,,,0.00,VWS V14.01,2013-08-26 13:50:00,
2013-08-26 08:55:00,78.0,67.8,30.21,SW,225,6.4,6.4,71,0.00,,,0.00,VWS V14.01,2013-08-26 13:55:00,
2013-08-26 09:00:00,78.4,68.6,30.21,SW,225,5.5,5.5,72,0.00,,,0.00,VWS V14.01,2013-08-26 14:00:00,
2013-08-26 09:05:00,78.8,68.6,30.22,SW,225,2.2,2.2,71,0.00,,,0.00,VWS V14.01,2013-08-26 14:05:00,
2013-08-26 09:10:00,79.7,69.5,30.21,WSW,248,6.2,6.2,71,0.00,,,0.00,VWS V14.01,2013-08-26 14:10:00,
2013-08-26 09:15:00,80.2,69.5,30.21,SSW,202,1.3,1.3,70,0.00,,,0.00,VWS V14.01,2013-08-26 14:15:00,
2013-08-26 09:20:00,80.4,69.7,30.21,SW,225,5.8,5.8,70,0.00,,,0.00,VWS V14.01,2013-08-26 14:20:00,
2013-08-26 09:25:00,81.1,70.4,30.21,SSW,202,4.6,4.6,70,0.00,,,0.00,VWS V14.01,2013-08-26 14:25:00,
2013-08-26 09:30:00,81.5,70.4,30.22,WSW,248,3.3,3.3,69,0.00,,,0.00,VWS V14.01,2013-08-26 14:30:00,
2013-08-26 09:35:00,81.5,70.4,30.21,WSW,248,2.0,2.0,69,0.00,,,0.00,VWS V14.01,2013-08-26 14:35:00,
2013-08-26 09:40:00,82.9,71.3,30.21,WSW,248,5.1,5.1,68,0.00,,,0.00,VWS V14.01,2013-08-26 14:40:00,
2013-08-26 09:45:00,83.1,70.6,30.22,West,270,2.9,2.9,66,0.00,,,0.00,VWS V14.01,2013-08-26 14:45:00,
2013-08-26 09:50:00,83.8,71.2,30.22,WSW,248,3.3,3.3,66,0.00,,,0.00,VWS V14.01,2013-08-26 14:50:00,
2013-08-26 09:55:00,83.8,70.8,30.23,SSW,202,1.7,2.6,65,0.00,,,0.00,VWS V14.01,2013-08-26 14:55:00,
2013-08-26 10:00:00,84.5,71.4,30.23,SW,225,2.4,2.4,65,0.00,,,0.00,VWS V14.01,2013-08-26 15:00:00,
2013-08-26 10:05:00,85.6,72.0,30.22,SW,225,1.1,1.1,64,0.00,,,0.00,VWS V14.01,2013-08-26 15:05:00,
2013-08-26 10:10:00,85.8,72.2,30.22,SW,225,1.7,1.7,64,0.00,,,0.00,VWS V14.01,2013-08-26 15:10:00,
2013-08-26 10:15:00,85.6,71.6,30.23,SW,225,5.8,5.8,63,0.00,,,0.00,VWS V14.01,2013-08-26 15:15:00,
2013-08-26 10:20:00,86.7,73.1,30.23,SSW,202,5.5,5.5,64,0.00,,,0.00,VWS V14.01,2013-08-26 15:20:00,
2013-08-26 10:25:00,87.0,72.4,30.22,WSW,248,0.8,2.0,62,0.00,,,0.00,VWS V14.01,2013-08-26 15:25:00,
2013-08-26 10:30:00,87.9,73.3,30.22,SW,225,3.8,3.8,62,0.00,,,0.00,VWS V14.01,2013-08-26 15:30:00,
2013-08-26 10:35:00,87.6,72.0,30.22,SW,225,3.8,3.8,60,0.00,,,0.00,VWS V14.01,2013-08-26 15:35:00,
2013-08-26 10:40:00,87.2,72.6,30.21,SW,225,3.5,3.5,62,0.00,,,0.00,VWS V14.01,2013-08-26 15:40:00,
2013-08-26 10:45:00,86.3,72.2,30.21,SW,225,0.6,0.6,63,0.00,,,0.00,VWS V14.01,2013-08-26 15:45:00,
2013-08-26 10:50:00,86.5,72.9,30.22,SSW,202,5.5,5.5,64,0.00,,,0.00,VWS V14.01,2013-08-26 15:50:00,
2013-08-26 10:55:00,86.1,72.0,30.21,SW,225,2.2,2.2,63,0.00,,,0.00,VWS V14.01,2013-08-26 15:55:00,
2013-08-26 11:00:00,86.7,73.5,30.21,SW,225,7.1,7.1,65,0.00,,,0.00,VWS V14.01,2013-08-26 16:00:00,
2013-08-26 11:05:00,87.0,73.4,30.21,SW,225,6.4,6.4,64,0.00,,,0.00,VWS V14.01,2013-08-26 16:05:00,
2013-08-26 11:10:00,87.2,73.6,30.21,SW,225,4.0,4.0,64,0.00,,,0.00,VWS V14.01,2013-08-26 16:10:00,
2013-08-26 11:15:00,87.9,74.2,30.21,SSW,202,6.0,6.0,64,0.00,,,0.00,VWS V14.01,2013-08-26 16:15:00,
2013-08-26 11:20:00,87.9,73.3,30.20,WSW,248,5.8,5.8,62,0.00,,,0.00,VWS V14.01,2013-08-26 16:20:00,
2013-08-26 11:25:00,88.1,73.9,30.20,SSW,202,1.3,1.3,63,0.00,,,0.00,VWS V14.01,2013-08-26 16:25:00,
2013-08-26 11:30:00,88.5,74.3,30.21,SSW,202,8.9,8.9,63,0.00,,,0.00,VWS V14.01,2013-08-26 16:30:00,
2013-08-26 11:35:00,88.5,73.8,30.20,SSW,202,4.9,4.9,62,0.00,,,0.00,VWS V14.01,2013-08-26 16:35:00,
2013-08-26 11:40:00,88.7,74.0,30.20,SSW,202,7.1,7.1,62,0.00,,,0.00,VWS V14.01,2013-08-26 16:40:00,
2013-08-26 11:45:00,88.7,74.0,30.20,SSW,202,6.0,6.0,62,0.00,,,0.00,VWS V14.01,2013-08-26 16:45:00,
2013-08-26 11:50:00,88.3,74.1,30.20,SW,225,7.3,7.3,63,0.00,,,0.00,VWS V14.01,2013-08-26 16:50:00,
2013-08-26 11:55:00,88.8,74.6,30.19,WSW,248,5.3,5.3,63,0.00,,,0.00,VWS V14.01,2013-08-26 16:55:00,
2013-08-26 12:00:00,89.4,75.2,30.19,WSW,248,2.9,2.9,63,0.00,,,0.00,VWS V14.01,2013-08-26 17:00:00,
2013-08-26 12:05:00,89.7,75.0,30.19,SW,225,4.9,4.9,62,0.00,,,0.00,VWS V14.01,2013-08-26 17:05:00,
2013-08-26 12:10:00,90.5,75.7,30.19,WSW,248,8.2,8.2,62,0.00,,,0.00,VWS V14.01,2013-08-26 17:10:00,
2013-08-26 12:15:00,89.7,74.0,30.19,SW,225,7.3,7.3,60,0.00,,,0.00,VWS V14.01,2013-08-26 17:15:00,
2013-08-26 12:20:00,89.4,74.2,30.19,SW,225,6.2,6.2,61,0.00,,,0.00,VWS V14.01,2013-08-26 17:20:00,
2013-08-26 12:25:00,89.7,75.0,30.18,SW,225,6.4,6.4,62,0.00,,,0.00,VWS V14.01,2013-08-26 17:25:00,
2013-08-26 12:30:00,89.7,74.5,30.18,WSW,248,8.5,8.5,61,0.00,,,0.00,VWS V14.01,2013-08-26 17:30:00,
2013-08-26 12:35:00,89.4,74.2,30.18,SSW,202,1.7,1.7,61,0.00,,,0.00,VWS V14.01,2013-08-26 17:35:00,
2013-08-26 12:40:00,90.3,75.0,30.18,SW,225,5.3,5.3,61,0.00,,,0.00,VWS V14.01,2013-08-26 17:40:00,
2013-08-26 12:45:00,90.6,74.8,30.18,SW,225,3.3,3.3,60,0.00,,,0.00,VWS V14.01,2013-08-26 17:45:00,
2013-08-26 12:50:00,90.3,74.5,30.17,SW,225,7.6,7.6,60,0.00,,,0.00,VWS V14.01,2013-08-26 17:50:00,
2013-08-26 12:55:00,90.6,75.3,30.17,SW,225,9.6,9.6,61,0.00,,,0.00,VWS V14.01,2013-08-26 17:55:00,
2013-08-26 13:00:00,90.6,74.3,30.17,SW,225,7.3,7.3,59,0.00,,,0.00,VWS V14.01,2013-08-26 18:00:00,
2013-08-26 13:05:00,90.8,75.0,30.17,SW,225,6.0,6.0,60,0.00,,,0.00,VWS V14.01,2013-08-26 18:05:00,
2013-08-26 13:10:00,90.6,75.3,30.17,SSW,202,8.9,8.9,61,0.00,,,0.00,VWS V14.01,2013-08-26 18:10:00,
2013-08-26 13:15:00,90.6,74.8,30.17,SW,225,6.2,6.2,60,0.00,,,0.00,VWS V14.01,2013-08-26 18:15:00,
2013-08-26 13:20:00,90.3,75.5,30.16,SSW,202,8.5,8.5,62,0.00,,,0.00,VWS V14.01,2013-08-26 18:20:00,
2013-08-26 13:25:00,90.1,74.8,30.17,SSW,202,6.7,6.7,61,0.00,,,0.00,VWS V14.01,2013-08-26 18:25:00,
2013-08-26 13:30:00,90.6,75.3,30.16,SSW,202,4.0,4.0,61,0.00,,,0.00,VWS V14.01,2013-08-26 18:30:00,
2013-08-26 13:35:00,91.0,76.2,30.16,SW,225,7.1,7.1,62,0.00,,,0.00,VWS V14.01,2013-08-26 18:35:00,
2013-08-26 13:40:00,90.8,76.0,30.16,SSW,202,10.2,10.2,62,0.00,,,0.00,VWS V14.01,2013-08-26 18:40:00,
2013-08-26 13:45:00,90.6,75.8,30.15,WSW,248,8.7,8.7,62,0.00,,,0.00,VWS V14.01,2013-08-26 18:45:00,
2013-08-26 13:50:00,91.0,75.7,30.15,SW,225,7.8,7.8,61,0.00,,,0.00,VWS V14.01,2013-08-26 18:50:00,
2013-08-26 13:55:00,90.6,75.3,30.15,West,270,8.2,8.2,61,0.00,,,0.00,VWS V14.01,2013-08-26 18:55:00,
2013-08-26 14:00:00,90.8,76.0,30.15,SSW,202,2.9,2.9,62,0.00,,,0.00,VWS V14.01,2013-08-26 19:00:00,
2013-08-26 14:05:00,91.0,75.2,30.15,SW,225,6.7,6.7,60,0.00,,,0.00,VWS V14.01,2013-08-26 19:05:00,
2013-08-26 14:09:00,90.3,75.0,30.15,SW,225,10.7,10.7,61,0.00,,,0.00,VWS V14.01,2013-08-26 19:09:00,
2013-08-26 14:14:00,90.3,75.5,30.15,SW,225,4.9,4.9,62,0.00,,,0.00,VWS V14.01,2013-08-26 19:14:00,
2013-08-26 14:19:00,91.0,75.7,30.15,SSW,202,5.8,5.8,61,0.00,,,0.00,VWS V14.01,2013-08-26 19:19:00,
2013-08-26 14:24:00,91.0,75.2,30.15,WNW,292,3.5,3.5,60,0.00,,,0.00,VWS V14.01,2013-08-26 19:24:00,
2013-08-26 14:29:00,91.0,75.2,30.14,SW,225,5.1,5.1,60,0.00,,,0.00,VWS V14.01,2013-08-26 19:29:00,
2013-08-26 14:34:00,91.0,75.2,30.14,WSW,248,4.9,4.9,60,0.00,,,0.00,VWS V14.01,2013-08-26 19:34:00,
2013-08-26 14:39:00,91.5,75.2,30.14,SW,225,4.4,4.4,59,0.00,,,0.00,VWS V14.01,2013-08-26 19:39:00,
2013-08-26 14:44:00,91.0,75.2,30.14,SSW,202,9.6,9.6,60,0.00,,,0.00,VWS V14.01,2013-08-26 19:44:00,
2013-08-26 14:49:00,90.5,74.2,30.14,SW,225,6.9,6.9,59,0.00,,,0.00,VWS V14.01,2013-08-26 19:49:00,
2013-08-26 14:54:00,91.0,75.7,30.14,SSW,202,6.9,6.9,61,0.00,,,0.00,VWS V14.01,2013-08-26 19:54:00,
2013-08-26 14:59:00,91.2,74.4,30.14,SW,225,6.9,6.9,58,0.00,,,0.00,VWS V14.01,2013-08-26 19:59:00,
2013-08-26 15:04:00,91.2,75.4,30.14,SW,225,5.1,5.1,60,0.00,,,0.00,VWS V14.01,2013-08-26 20:04:00,
2013-08-26 15:09:00,91.5,76.2,30.14,SSW,202,5.1,5.1,61,0.00,,,0.00,VWS V14.01,2013-08-26 20:09:00,
2013-08-26 15:14:00,91.7,75.3,30.13,SW,225,6.7,6.7,59,0.00,,,0.00,VWS V14.01,2013-08-26 20:14:00,
2013-08-26 15:19:00,91.7,74.8,30.13,SSW,202,10.0,10.0,58,0.00,,,0.00,VWS V14.01,2013-08-26 20:19:00,
2013-08-26 15:24:00,91.9,74.5,30.13,SSW,202,10.9,10.9,57,0.00,,,0.00,VWS V14.01,2013-08-26 20:24:00,
2013-08-26 15:29:00,91.9,74.5,30.13,SSW,202,7.8,7.8,57,0.00,,,0.00,VWS V14.01,2013-08-26 20:29:00,
2013-08-26 15:34:00,92.1,75.7,30.13,SW,225,6.4,6.4,59,0.00,,,0.00,VWS V14.01,2013-08-26 20:34:00,
2013-08-26 15:39:00,92.4,73.9,30.13,SW,225,8.9,8.9,55,0.00,,,0.00,VWS V14.01,2013-08-26 20:39:00,
2013-08-26 15:44:00,92.6,74.1,30.12,SW,225,12.5,12.5,55,0.00,,,0.00,VWS V14.01,2013-08-26 20:44:00,
2013-08-26 15:49:00,92.4,73.9,30.12,SW,225,15.8,15.8,55,0.00,,,0.00,VWS V14.01,2013-08-26 20:49:00,
2013-08-26 15:54:00,92.1,73.1,30.12,SSW,202,10.5,10.5,54,0.00,,,0.00,VWS V14.01,2013-08-26 20:54:00,
2013-08-26 15:59:00,91.7,74.3,30.12,SW,225,7.1,7.1,57,0.00,,,0.00,VWS V14.01,2013-08-26 20:59:00,
2013-08-26 16:04:00,92.1,74.7,30.12,SW,225,10.9,10.9,57,0.00,,,0.00,VWS V14.01,2013-08-26 21:04:00,
2013-08-26 16:09:00,91.9,73.4,30.12,SSW,202,6.7,6.7,55,0.00,,,0.00,VWS V14.01,2013-08-26 21:09:00,
2013-08-26 16:14:00,92.3,74.9,30.12,SSW,202,7.8,7.8,57,0.00,,,0.00,VWS V14.01,2013-08-26 21:14:00,
2013-08-26 16:19:00,92.4,73.9,30.12,SSW,202,6.7,6.7,55,0.00,,,0.00,VWS V14.01,2013-08-26 21:19:00,
2013-08-26 16:24:00,92.4,73.9,30.12,SW,225,8.2,8.2,55,0.00,,,0.00,VWS V14.01,2013-08-26 21:24:00,
2013-08-26 16:29:00,92.1,74.2,30.11,SSW,202,7.6,7.6,56,0.00,,,0.00,VWS V14.01,2013-08-26 21:29:00,
2013-08-26 16:34:00,92.1,72.5,30.11,SW,225,7.6,7.6,53,0.00,,,0.00,VWS V14.01,2013-08-26 21:34:00,
2013-08-26 16:39:00,92.3,73.3,30.11,SSW,202,6.4,6.4,54,0.00,,,0.00,VWS V14.01,2013-08-26 21:39:00,
2013-08-26 16:44:00,92.3,73.3,30.11,SSW,202,7.6,7.6,54,0.00,,,0.00,VWS V14.01,2013-08-26 21:44:00,
2013-08-26 16:49:00,92.4,73.3,30.11,SSW,202,7.1,7.1,54,0.00,,,0.00,VWS V14.01,2013-08-26 21:49:00,
2013-08-26 16:54:00,92.1,73.1,30.11,SW,225,4.4,4.4,54,0.00,,,0.00,VWS V14.01,2013-08-26 21:54:00,
2013-08-26 16:59:00,92.1,73.6,30.11,SSW,202,7.1,7.1,55,0.00,,,0.00,VWS V14.01,2013-08-26 21:59:00,
2013-08-26 17:04:00,91.9,73.4,30.11,SSW,202,8.2,8.2,55,0.00,,,0.00,VWS V14.01,2013-08-26 22:04:00,
2013-08-26 17:09:00,92.1,74.2,30.11,SSW,202,2.9,2.9,56,0.00,,,0.00,VWS V14.01,2013-08-26 22:09:00,
2013-08-26 17:14:00,92.1,74.7,30.11,SSW,202,6.4,6.4,57,0.00,,,0.00,VWS V14.01,2013-08-26 22:14:00,
2013-08-26 17:19:00,91.9,74.5,30.11,SSW,202,7.8,7.8,57,0.00,,,0.00,VWS V14.01,2013-08-26 22:19:00,
2013-08-26 17:24:00,91.7,74.8,30.11,SSW,202,4.2,4.2,58,0.00,,,0.00,VWS V14.01,2013-08-26 22:24:00,
2013-08-26 17:29:00,91.2,74.4,30.11,SSW,202,6.7,6.7,58,0.00,,,0.00,VWS V14.01,2013-08-26 22:29:00,
2013-08-26 17:34:00,91.0,74.2,30.10,SSW,202,8.9,8.9,58,0.00,,,0.00,VWS V14.01,2013-08-26 22:34:00,
2013-08-26 17:39:00,90.8,74.0,30.10,SSW,202,6.7,6.7,58,0.00,,,0.00,VWS V14.01,2013-08-26 22:39:00,
2013-08-26 17:44:00,90.6,74.3,30.10,SSW,202,5.3,5.3,59,0.00,,,0.00,VWS V14.01,2013-08-26 22:44:00,
2013-08-26 17:49:00,90.3,73.5,30.10,SSW,202,6.9,6.9,58,0.00,,,0.00,VWS V14.01,2013-08-26 22:49:00,
2013-08-26 17:54:00,90.3,74.0,30.10,SSW,202,6.7,6.7,59,0.00,,,0.00,VWS V14.01,2013-08-26 22:54:00,
2013-08-26 17:59:00,90.1,74.3,30.09,South,180,10.2,10.2,60,0.00,,,0.00,VWS V14.01,2013-08-26 22:59:00,
2013-08-26 18:04:00,89.9,73.7,30.09,SSW,202,6.0,6.0,59,0.00,,,0.00,VWS V14.01,2013-08-26 23:04:00,
2013-08-26 18:09:00,89.7,74.0,30.09,SSW,202,6.7,6.7,60,0.00,,,0.00,VWS V14.01,2013-08-26 23:09:00,
2013-08-26 18:14:00,89.4,73.7,30.09,SSW,202,7.3,7.3,60,0.00,,,0.00,VWS V14.01,2013-08-26 23:14:00,
2013-08-26 18:19:00,89.2,73.5,30.09,SW,225,4.4,4.4,60,0.00,,,0.00,VWS V14.01,2013-08-26 23:19:00,
2013-08-26 18:24:00,88.8,73.6,30.09,SSW,202,6.0,6.0,61,0.00,,,0.00,VWS V14.01,2013-08-26 23:24:00,
2013-08-26 18:29:00,88.5,73.3,30.09,SSW,202,6.9,6.9,61,0.00,,,0.00,VWS V14.01,2013-08-26 23:29:00,
2013-08-26 18:34:00,88.3,73.2,30.08,SSW,202,5.3,5.3,61,0.00,,,0.00,VWS V14.01,2013-08-26 23:34:00,
2013-08-26 18:39:00,87.9,73.3,30.08,SSW,202,3.8,3.8,62,0.00,,,0.00,VWS V14.01,2013-08-26 23:39:00,
2013-08-26 18:44:00,87.6,73.5,30.08,SSW,202,5.3,5.3,63,0.00,,,0.00,VWS V14.01,2013-08-26 23:44:00,
2013-08-26 18:49:00,87.2,73.6,30.08,SSW,202,3.8,3.8,64,0.00,,,0.00,VWS V14.01,2013-08-26 23:49:00,
2013-08-26 18:54:00,87.0,73.4,30.08,South,180,4.9,4.9,64,0.00,,,0.00,VWS V14.01,2013-08-26 23:54:00,
2013-08-26 18:59:00,86.5,73.3,30.08,SSW,202,3.3,3.3,65,0.00,,,0.00,VWS V14.01,2013-08-26 23:59:00,
2013-08-26 19:04:00,86.1,73.0,30.08,SSE,158,2.0,2.0,65,0.00,,,0.00,VWS V14.01,2013-08-27 00:04:00,
2013-08-26 19:09:00,85.8,73.1,30.08,SSW,202,2.6,2.6,66,0.00,,,0.00,VWS V14.01,2013-08-27 00:09:00,
2013-08-26 19:14:00,84.9,72.7,30.08,SSW,202,3.3,3.3,67,0.00,,,0.00,VWS V14.01,2013-08-27 00:14:00,
2013-08-26 19:19:00,84.5,72.8,30.07,SSW,202,1.5,1.5,68,0.00,,,0.00,VWS V14.01,2013-08-27 00:19:00,
2013-08-26 19:24:00,84.0,72.7,30.08,SSW,202,4.4,4.4,69,0.00,,,0.00,VWS V14.01,2013-08-27 00:24:00,
2013-08-26 19:29:00,83.4,72.6,30.07,SSW,202,1.5,1.5,70,0.00,,,0.00,VWS V14.01,2013-08-27 00:29:00,
2013-08-26 19:34:00,83.1,72.7,30.07,SSW,202,0.8,0.8,71,0.00,,,0.00,VWS V14.01,2013-08-27 00:34:00,
2013-08-26 19:39:00,82.5,72.6,30.07,SSW,202,1.1,1.1,72,0.00,,,0.00,VWS V14.01,2013-08-27 00:39:00,
2013-08-26 19:44:00,82.2,72.3,30.07,South,180,1.7,1.7,72,0.00,,,0.00,VWS V14.01,2013-08-27 00:44:00,
2013-08-26 19:49:00,81.6,72.1,30.07,South,180,2.9,2.9,73,0.00,,,0.00,VWS V14.01,2013-08-27 00:49:00,
2013-08-26 19:54:00,81.5,72.0,30.07,SSW,202,3.3,3.3,73,0.00,,,0.00,VWS V14.01,2013-08-27 00:54:00,
2013-08-26 19:59:00,81.3,71.8,30.07,SSW,202,3.3,3.3,73,0.00,,,0.00,VWS V14.01,2013-08-27 00:59:00,
2013-08-26 20:04:00,81.1,71.6,30.07,SSW,202,4.0,4.0,73,0.00,,,0.00,VWS V14.01,2013-08-27 01:04:00,
2013-08-26 20:09:00,80.7,71.2,30.07,SSW,202,3.3,3.3,73,0.00,,,0.00,VWS V14.01,2013-08-27 01:09:00,
2013-08-26 20:14:00,80.4,71.4,30.06,SSW,202,4.0,4.0,74,0.00,,,0.00,VWS V14.01,2013-08-27 01:14:00,
2013-08-26 20:19:00,80.4,71.4,30.07,SSW,202,2.2,2.2,74,0.00,,,0.00,VWS V14.01,2013-08-27 01:19:00,
2013-08-26 20:24:00,80.0,71.0,30.07,SSW,202,4.0,4.0,74,0.00,,,0.00,VWS V14.01,2013-08-27 01:24:00,
2013-08-26 20:29:00,79.8,70.8,30.07,SSW,202,0.0,0.0,74,0.00,,,0.00,VWS V14.01,2013-08-27 01:29:00,
2013-08-26 20:34:00,79.8,70.8,30.07,South,180,0.0,0.0,74,0.00,,,0.00,VWS V14.01,2013-08-27 01:34:00,
2013-08-26 20:39:00,79.5,70.5,30.07,SSW,202,0.0,0.0,74,0.00,,,0.00,VWS V14.01,2013-08-27 01:39:00,
2013-08-26 20:44:00,79.5,70.5,30.07,SSW,202,0.0,0.0,74,0.00,,,0.00,VWS V14.01,2013-08-27 01:44:00,
2013-08-26 20:49:00,79.1,70.1,30.08,SSW,202,0.0,0.0,74,0.00,,,0.00,VWS V14.01,2013-08-27 01:49:00,
2013-08-26 20:54:00,78.6,69.6,30.08,South,180,0.0,0.0,74,0.00,,,0.00,VWS V14.01,2013-08-27 01:54:00,
2013-08-26 20:59:00,78.6,70.0,30.08,South,180,0.0,0.0,75,0.00,,,0.00,VWS V14.01,2013-08-27 01:59:00,
2013-08-26 21:04:00,78.4,69.8,30.08,South,180,0.0,0.0,75,0.00,,,0.00,VWS V14.01,2013-08-27 02:04:00,
2013-08-26 21:09:00,78.0,69.8,30.08,South,180,0.0,0.0,76,0.00,,,0.00,VWS V14.01,2013-08-27 02:09:00,
2013-08-26 21:14:00,77.7,69.5,30.09,South,180,0.0,0.0,76,0.00,,,0.00,VWS V14.01,2013-08-27 02:14:00,
2013-08-26 21:19:00,77.5,69.7,30.08,SSW,202,0.0,0.0,77,0.00,,,0.00,VWS V14.01,2013-08-27 02:19:00,
2013-08-26 21:24:00,77.3,69.5,30.08,SSW,202,0.0,0.0,77,0.00,,,0.00,VWS V14.01,2013-08-27 02:24:00,
2013-08-26 21:29:00,77.1,69.3,30.08,SSW,202,0.2,0.2,77,0.00,,,0.00,VWS V14.01,2013-08-27 02:29:00,
2013-08-26 21:34:00,77.1,69.3,30.08,South,180,2.2,2.2,77,0.00,,,0.00,VWS V14.01,2013-08-27 02:34:00,
2013-08-26 21:39:00,77.1,69.3,30.08,SSW,202,0.0,0.0,77,0.00,,,0.00,VWS V14.01,2013-08-27 02:39:00,
2013-08-26 21:44:00,77.0,69.2,30.07,SSW,202,0.0,0.0,77,0.00,,,0.00,VWS V14.01,2013-08-27 02:44:00,
2013-08-26 21:49:00,76.8,69.4,30.07,SSW,202,0.0,0.0,78,0.00,,,0.00,VWS V14.01,2013-08-27 02:49:00,
2013-08-26 21:54:00,76.8,69.4,30.08,SSW,202,0.0,0.0,78,0.00,,,0.00,VWS V14.01,2013-08-27 02:54:00,
2013-08-26 21:59:00,76.6,69.6,30.08,SSW,202,1.3,1.3,79,0.00,,,0.00,VWS V14.01,2013-08-27 02:59:00,
2013-08-26 22:04:00,76.6,69.6,30.08,SSW,202,1.3,1.3,79,0.00,,,0.00,VWS V14.01,2013-08-27 03:04:00,
2013-08-26 22:09:00,76.2,69.2,30.09,SSW,202,2.9,2.9,79,0.00,,,0.00,VWS V14.01,2013-08-27 03:09:00,
2013-08-26 22:14:00,76.2,69.6,30.09,SSW,202,0.0,0.0,80,0.00,,,0.00,VWS V14.01,2013-08-27 03:14:00,
2013-08-26 22:19:00,76.2,69.6,30.09,SSW,202,0.6,0.6,80,0.00,,,0.00,VWS V14.01,2013-08-27 03:19:00,
2013-08-26 22:24:00,76.2,69.9,30.08,South,180,2.4,2.4,81,0.00,,,0.00,VWS V14.01,2013-08-27 03:24:00,
2013-08-26 22:29:00,76.1,69.8,30.08,SSW,202,4.2,4.2,81,0.00,,,0.00,VWS V14.01,2013-08-27 03:29:00,
2013-08-26 22:34:00,75.9,69.7,30.08,South,180,2.9,2.9,81,0.00,,,0.00,VWS V14.01,2013-08-27 03:34:00,
2013-08-26 22:39:00,75.7,69.8,30.08,SSW,202,1.3,1.3,82,0.00,,,0.00,VWS V14.01,2013-08-27 03:39:00,
2013-08-26 22:44:00,75.7,69.8,30.08,SSW,202,0.6,0.6,82,0.00,,,0.00,VWS V14.01,2013-08-27 03:44:00,
2013-08-26 22:49:00,75.7,69.8,30.08,SSW,202,4.2,4.2,82,0.00,,,0.00,VWS V14.01,2013-08-27 03:49:00,
2013-08-26 22:54:00,75.7,69.8,30.08,SSW,202,2.6,2.6,82,0.00,,,0.00,VWS V14.01,2013-08-27 03:54:00,
2013-08-26 22:59:00,75.7,69.8,30.08,SSW,202,0.0,0.0,82,0.00,,,0.00,VWS V14.01,2013-08-27 03:59:00,
2013-08-26 23:01:00,75.7,69.8,30.09,SSW,202,0.0,0.0,82,0.00,,,0.00,VWS V14.01,2013-08-27 04:01:00,
2013-08-26 23:06:00,75.3,69.4,30.08,SSW,202,0.0,0.0,82,0.00,,,0.00,VWS V14.01,2013-08-27 04:06:00,
2013-08-26 23:11:00,75.0,69.5,30.08,SSW,202,0.0,0.0,83,0.00,,,0.00,VWS V14.01,2013-08-27 04:11:00,
2013-08-26 23:16:00,75.0,69.5,30.08,SSW,202,0.0,0.0,83,0.00,,,0.00,VWS V14.01,2013-08-27 04:16:00,
2013-08-26 23:21:00,75.0,69.5,30.08,SSW,202,0.0,0.0,83,0.00,,,0.00,VWS V14.01,2013-08-27 04:21:00,
2013-08-26 23:26:00,74.8,69.3,30.08,SSW,202,0.0,0.0,83,0.00,,,0.00,VWS V14.01,2013-08-27 04:26:00,
2013-08-26 23:31:00,75.0,69.5,30.07,SSW,202,0.6,0.6,83,0.00,,,0.00,VWS V14.01,2013-08-27 04:31:00,
2013-08-26 23:36:00,75.0,69.8,30.07,SSW,202,0.0,0.0,84,0.00,,,0.00,VWS V14.01,2013-08-27 04:36:00,
2013-08-26 23:41:00,75.3,69.8,30.07,North,0,0.0,0.0,83,0.00,,,0.00,VWS V14.01,2013-08-27 04:41:00,
2013-08-26 23:46:00,75.3,70.1,30.08,South,180,0.0,1.7,84,0.00,,,0.00,VWS V14.01,2013-08-27 04:46:00,
2013-08-26 23:51:00,75.3,69.8,30.08,SSW,202,0.0,0.0,83,0.00,,,0.00,VWS V14.01,2013-08-27 04:51:00,
2013-08-26 23:56:00,75.3,69.8,30.08,South,180,0.0,0.0,83,0.00,,,0.00,VWS V14.01,2013-08-27 04:56:00,